Time;durP1;ratioP1;P1;durP2;ratioP2;P2;SDS_P1;SDS_P2;PMS_P1;PMS_P2;Temp;Humidity;BMP_temperature;BMP_pressure;BME280_temperature;BME280_humidity;BME280_pressure;Samples;Min_cycle;Max_cycle;Signal;HPM_P1;HPM_P2
2023/01/11 00:01:36;;;;;;;;;1.67;1.00;;;;;-147.17;100.00;-15917.19;5046395;28;51773;-59
2023/01/11 00:04:01;;;;;;;;;0.00;0.00;;;;;-147.17;100.00;-15917.19;5046871;27;51203;-58
2023/01/11 00:06:27;;;;;;;;;1.00;1.00;;;;;-147.17;100.00;-15917.19;5042482;28;52082;-59
2023/01/11 00:08:52;;;;;;;;;0.00;0.00;;;;;-147.17;100.00;-15917.19;5048327;28;51919;-58
2023/01/11 00:11:18;;;;;;;;;1.00;1.00;;;;;-147.17;100.00;-15917.19;5042377;28;52022;-59
2023/01/11 00:13:44;;;;;;;;;2.33;1.00;;;;;-147.17;100.00;-15917.19;5047685;28;52694;-59
2023/01/11 00:16:10;;;;;;;;;3.00;2.33;;;;;-147.17;100.00;-15917.19;5046307;28;51073;-59
2023/01/11 00:18:36;;;;;;;;;1.67;1.67;;;;;-147.17;100.00;-15917.19;5046813;28;51537;-59
2023/01/11 00:21:05;;;;;;;;;1.00;0.00;;;;;-147.17;100.00;-15917.19;5047563;28;52923;-59
2023/01/11 00:23:35;;;;;;;;;1.00;1.00;;;;;-147.17;100.00;-15917.19;5045237;28;51223;-59
2023/01/11 00:26:05;;;;;;;;;1.00;1.00;;;;;-147.17;100.00;-15917.19;5046411;28;51221;-59
2023/01/11 00:28:31;;;;;;;;;2.00;1.00;;;;;-147.17;100.00;-15917.19;5037869;28;51139;-60
2023/01/11 00:30:57;;;;;;;;;1.33;1.00;;;;;-147.17;100.00;-15917.19;5054882;28;51962;-60
2023/01/11 00:33:22;;;;;;;;;1.33;1.33;;;;;-147.17;100.00;-15917.19;5043791;27;51166;-60
2023/01/11 00:35:51;;;;;;;;;2.00;0.00;;;;;-147.17;100.00;-15917.19;5063343;28;51122;-58
2023/01/11 00:38:42;;;;;;;;;1.00;1.00;;;;;-147.17;100.00;-15917.19;5042201;28;51489;-59
2023/01/11 00:47:55;;;;;;;;;1.00;1.00;;;;;-147.17;100.00;-15917.19;5041337;28;51143;-60
2023/01/11 00:49:15;;;;;;;;;1.00;1.00;;;;;-147.17;100.00;-15917.19;5051245;28;51844;-59
2023/01/11 00:51:41;;;;;;;;;2.33;0.67;;;;;-147.17;100.00;-15917.19;5053020;28;51650;-59
2023/01/11 00:54:06;;;;;;;;;1.00;0.33;;;;;-147.17;100.00;-15917.19;5058308;28;51006;-59
2023/01/11 00:56:31;;;;;;;;;1.00;1.00;;;;;-147.17;100.00;-15917.19;5042882;27;51109;-59
2023/01/11 00:58:59;;;;;;;;;1.00;1.00;;;;;-147.17;100.00;-15917.19;5051425;28;51067;-63
2023/01/11 01:01:24;;;;;;;;;1.00;1.00;;;;;-147.17;100.00;-15917.19;5047978;28;51191;-60
2023/01/11 01:03:50;;;;;;;;;1.00;1.00;;;;;-147.17;100.00;-15917.19;5039825;28;51286;-60
2023/01/11 01:06:15;;;;;;;;;1.00;1.00;;;;;-147.17;100.00;-15917.19;5046538;28;51117;-59
2023/01/11 01:08:43;;;;;;;;;0.00;0.00;;;;;-147.17;100.00;-15917.19;5050496;28;51044;-58
2023/01/11 01:11:11;;;;;;;;;2.00;2.00;;;;;-147.17;100.00;-15917.19;5039918;28;51025;-59
2023/01/11 01:16:20;;;;;;;;;2.00;1.00;;;;;-147.17;100.00;-15917.19;5047865;28;51184;-59
2023/01/11 01:18:46;;;;;;;;;1.00;0.00;;;;;-147.17;100.00;-15917.19;5057241;28;51066;-59
2023/01/11 01:21:19;;;;;;;;;0.33;0.00;;;;;-147.17;100.00;-15917.19;5050685;28;51885;-60
2023/01/11 01:23:47;;;;;;;;;0.00;0.00;;;;;-147.17;100.00;-15917.19;5057777;27;51058;-60
2023/01/11 01:26:12;;;;;;;;;0.00;0.00;;;;;-147.17;100.00;-15917.19;5063370;28;51131;-59
2023/01/11 01:28:37;;;;;;;;;0.67;0.00;;;;;-147.17;100.00;-15917.19;5054957;28;51316;-59
2023/01/11 01:31:03;;;;;;;;;1.00;0.00;;;;;-147.17;100.00;-15917.19;5048412;28;51701;-59
2023/01/11 01:33:28;;;;;;;;;1.67;1.67;;;;;-147.17;100.00;-15917.19;5048249;28;51184;-60
2023/01/11 01:35:54;;;;;;;;;1.00;0.00;;;;;-147.17;100.00;-15917.19;5056427;28;51066;-59
2023/01/11 01:38:20;;;;;;;;;0.00;0.00;;;;;-147.17;100.00;-15917.19;5054242;27;51385;-59
2023/01/11 01:40:47;;;;;;;;;1.00;0.33;;;;;-147.17;100.00;-15917.19;5043726;28;51081;-59
2023/01/11 01:43:17;;;;;;;;;1.33;1.33;;;;;-147.17;100.00;-15917.19;5044831;28;51177;-59
2023/01/11 01:45:42;;;;;;;;;0.00;0.00;;;;;-147.17;100.00;-15917.19;5042057;28;51234;-60
2023/01/11 01:48:17;;;;;;;;;1.33;1.00;;;;;-147.17;100.00;-15917.19;5055228;28;51212;-59
2023/01/11 01:50:47;;;;;;;;;1.33;1.33;;;;;-147.17;100.00;-15917.19;5051998;27;52002;-59
2023/01/11 01:53:36;;;;;;;;;4.00;3.00;;;;;-147.17;100.00;-15917.19;5051844;28;51028;-59
2023/01/11 01:56:06;;;;;;;;;0.67;0.00;;;;;-147.17;100.00;-15917.19;5054367;28;51206;-59
2023/01/11 01:58:37;;;;;;;;;0.67;0.67;;;;;-147.17;100.00;-15917.19;5041942;27;51351;-58
2023/01/11 02:03:54;;;;;;;;;0.00;0.00;;;;;-147.17;100.00;-15917.19;5055718;28;52439;-58
2023/01/11 02:06:22;;;;;;;;;0.00;0.00;;;;;-147.17;100.00;-15917.19;5046656;27;51036;-60
2023/01/11 02:08:59;;;;;;;;;0.33;0.33;;;;;-147.17;100.00;-15917.19;5053154;28;51169;-59
2023/01/11 02:11:31;;;;;;;;;0.00;0.00;;;;;-147.17;100.00;-15917.19;5048092;28;52351;-59
2023/01/11 02:14:06;;;;;;;;;0.00;0.00;;;;;-147.17;100.00;-15917.19;5051301;28;51282;-60
2023/01/11 02:16:32;;;;;;;;;0.00;0.00;;;;;-147.17;100.00;-15917.19;5054089;28;50997;-59
2023/01/11 02:18:59;;;;;;;;;0.00;0.00;;;;;-147.17;100.00;-15917.19;5068902;28;51442;-59
2023/01/11 02:21:54;;;;;;;;;0.00;0.00;;;;;-147.17;100.00;-15917.19;5052182;28;51140;-59
2023/01/11 02:24:49;;;;;;;;;0.00;0.00;;;;;-147.17;100.00;-15917.19;5032020;28;51196;-58
2023/01/11 02:27:14;;;;;;;;;0.00;0.00;;;;;-147.17;100.00;-15917.19;5042768;28;51374;-63
2023/01/11 02:29:49;;;;;;;;;0.00;0.00;;;;;-147.17;100.00;-15917.19;5053552;28;51365;-60
2023/01/11 02:32:49;;;;;;;;;1.00;0.00;;;;;-147.17;100.00;-15917.19;5054690;28;51145;-61
2023/01/11 02:35:19;;;;;;;;;0.00;0.00;;;;;-147.17;100.00;-15917.19;5046599;28;51278;-60
2023/01/11 02:38:06;;;;;;;;;0.00;0.00;;;;;-147.17;100.00;-15917.19;5054110;28;51131;-59
2023/01/11 02:40:53;;;;;;;;;0.00;0.00;;;;;-147.17;100.00;-15917.19;5045955;28;50900;-59
2023/01/11 02:46:46;;;;;;;;;0.00;0.00;;;;;-147.17;100.00;-15917.19;5052010;28;51106;-58
2023/01/11 02:49:35;;;;;;;;;0.00;0.00;;;;;-147.17;100.00;-15917.19;5041174;28;51377;-59
2023/01/11 02:52:13;;;;;;;;;0.00;0.00;;;;;-147.17;100.00;-15917.19;5053773;28;51461;-59
2023/01/11 02:54:42;;;;;;;;;0.00;0.00;;;;;-147.17;100.00;-15917.19;5037970;28;51028;-59
2023/01/11 02:57:12;;;;;;;;;0.00;0.00;;;;;-147.17;100.00;-15917.19;5071996;28;51076;-59
2023/01/11 02:59:41;;;;;;;;;0.00;0.00;;;;;-147.17;100.00;-15917.19;5048109;27;53040;-60
2023/01/11 03:02:07;;;;;;;;;0.00;0.00;;;;;-147.17;100.00;-15917.19;5051296;28;51211;-60
2023/01/11 03:04:35;;;;;;;;;0.00;0.00;;;;;-147.17;100.00;-15917.19;5048106;28;52454;-59
2023/01/11 03:07:38;;;;;;;;;0.00;0.00;;;;;-147.17;100.00;-15917.19;5065530;27;52608;-59
2023/01/11 03:10:27;;;;;;;;;0.00;0.00;;;;;-147.17;100.00;-15917.19;5039171;28;51099;-59
2023/01/11 03:13:13;;;;;;;;;0.00;0.00;;;;;-147.17;100.00;-15917.19;5047537;28;51261;-59
2023/01/11 03:15:47;;;;;;;;;0.00;0.00;;;;;-147.17;100.00;-15917.19;5050827;28;50935;-59
2023/01/11 03:18:37;;;;;;;;;0.00;0.00;;;;;-147.17;100.00;-15917.19;5045642;28;51476;-59
2023/01/11 03:21:27;;;;;;;;;0.00;0.00;;;;;-147.17;100.00;-15917.19;5051254;28;51449;-58
2023/01/11 03:24:08;;;;;;;;;0.00;0.00;;;;;-147.17;100.00;-15917.19;5053766;28;51050;-59
2023/01/11 03:26:42;;;;;;;;;0.00;0.00;;;;;-147.17;100.00;-15917.19;5066473;28;51316;-58
2023/01/11 03:29:14;;;;;;;;;0.00;0.00;;;;;-147.17;100.00;-15917.19;5044286;28;51227;-60
2023/01/11 03:31:49;;;;;;;;;0.00;0.00;;;;;-147.17;100.00;-15917.19;5049058;28;51205;-60
2023/01/11 03:34:18;;;;;;;;;0.00;0.00;;;;;-147.17;100.00;-15917.19;5060907;27;50884;-60
2023/01/11 03:37:13;;;;;;;;;0.00;0.00;;;;;-147.17;100.00;-15917.19;5058114;28;51942;-60
2023/01/11 03:40:12;;;;;;;;;0.00;0.00;;;;;-147.17;100.00;-15917.19;5050709;28;51136;-59
2023/01/11 03:45:34;;;;;;;;;0.00;0.00;;;;;-147.17;100.00;-15917.19;5053309;28;51165;-60
2023/01/11 03:48:02;;;;;;;;;0.00;0.00;;;;;-147.17;100.00;-15917.19;5055269;28;52336;-60
2023/01/11 03:50:30;;;;;;;;;0.00;0.00;;;;;-147.17;100.00;-15917.19;5064347;28;50983;-60
2023/01/11 03:52:59;;;;;;;;;0.00;0.00;;;;;-147.17;100.00;-15917.19;5055216;28;51323;-59
2023/01/11 03:55:29;;;;;;;;;0.00;0.00;;;;;-147.17;100.00;-15917.19;5043313;28;51028;-59
2023/01/11 03:57:56;;;;;;;;;0.00;0.00;;;;;-147.17;100.00;-15917.19;5057368;28;51189;-59
2023/01/11 04:00:24;;;;;;;;;0.33;0.00;;;;;-147.17;100.00;-15917.19;5052685;28;51236;-59
2023/01/11 04:02:52;;;;;;;;;0.00;0.00;;;;;-147.17;100.00;-15917.19;5052944;28;50991;-61
2023/01/11 04:05:18;;;;;;;;;0.00;0.00;;;;;-147.17;100.00;-15917.19;5051980;28;51081;-60
2023/01/11 04:07:43;;;;;;;;;0.00;0.00;;;;;-147.17;100.00;-15917.19;5039643;28;51080;-59
2023/01/11 04:10:09;;;;;;;;;0.00;0.00;;;;;-147.17;100.00;-15917.19;5048577;27;51242;-59
2023/01/11 04:12:35;;;;;;;;;0.00;0.00;;;;;-147.17;100.00;-15917.19;5062655;28;51176;-59
2023/01/11 04:15:02;;;;;;;;;0.00;0.00;;;;;-147.17;100.00;-15917.19;5052798;28;51374;-59
2023/01/11 04:17:27;;;;;;;;;0.00;0.00;;;;;-147.17;100.00;-15917.19;5059492;27;52698;-60
2023/01/11 04:19:53;;;;;;;;;0.00;0.00;;;;;-147.17;100.00;-15917.19;5051628;28;51332;-60
2023/01/11 04:22:18;;;;;;;;;0.00;0.00;;;;;-147.17;100.00;-15917.19;5051140;28;51138;-61
2023/01/11 04:24:43;;;;;;;;;0.00;0.00;;;;;-147.17;100.00;-15917.19;5062741;28;50934;-60
2023/01/11 04:27:09;;;;;;;;;0.67;0.00;;;;;-147.17;100.00;-15917.19;5056203;27;51795;-60
2023/01/11 04:29:34;;;;;;;;;0.00;0.00;;;;;-147.17;100.00;-15917.19;5055763;27;50970;-60
2023/01/11 04:32:00;;;;;;;;;0.00;0.00;;;;;-147.17;100.00;-15917.19;5057255;28;51241;-60
2023/01/11 04:34:25;;;;;;;;;0.00;0.00;;;;;-147.17;100.00;-15917.19;5049681;28;51001;-60
2023/01/11 04:36:52;;;;;;;;;0.00;0.00;;;;;-147.17;100.00;-15917.19;5062121;28;51770;-60
2023/01/11 04:39:18;;;;;;;;;0.00;0.00;;;;;-147.17;100.00;-15917.19;5067832;28;51081;-60
2023/01/11 04:44:27;;;;;;;;;0.00;0.00;;;;;-147.17;100.00;-15917.19;5063672;28;51097;-61
2023/01/11 04:46:52;;;;;;;;;0.00;0.00;;;;;-147.17;100.00;-15917.19;5060280;27;52826;-60
2023/01/11 04:49:18;;;;;;;;;0.33;0.33;;;;;-147.17;100.00;-15917.19;5059385;27;50993;-59
2023/01/11 04:51:43;;;;;;;;;5.00;4.00;;;;;-147.17;100.00;-15917.19;5054289;28;51220;-59
2023/01/11 04:54:09;;;;;;;;;1.00;1.00;;;;;-147.17;100.00;-15917.19;5051749;27;51389;-59
2023/01/11 04:56:35;;;;;;;;;2.00;2.00;;;;;-147.17;100.00;-15917.19;5038228;28;52886;-60
2023/01/11 04:59:00;;;;;;;;;1.67;1.67;;;;;-147.17;100.00;-15917.19;5053069;28;51185;-59
2023/01/11 05:01:25;;;;;;;;;0.67;0.67;;;;;-147.17;100.00;-15917.19;5053233;28;51160;-59
2023/01/11 05:03:51;;;;;;;;;0.00;0.00;;;;;-147.17;100.00;-15917.19;5050571;28;51161;-59
2023/01/11 05:06:21;;;;;;;;;1.00;0.00;;;;;-147.17;100.00;-15917.19;5050223;28;51122;-60
2023/01/11 05:08:47;;;;;;;;;0.00;0.00;;;;;-147.17;100.00;-15917.19;5057858;27;51155;-60
2023/01/11 05:11:13;;;;;;;;;0.00;0.00;;;;;-147.17;100.00;-15917.19;5057990;28;51269;-60
2023/01/11 05:13:41;;;;;;;;;0.00;0.00;;;;;-147.17;100.00;-15917.19;5058474;27;51153;-60
2023/01/11 05:16:08;;;;;;;;;0.00;0.00;;;;;-147.17;100.00;-15917.19;5058917;28;52833;-60
2023/01/11 05:18:33;;;;;;;;;0.00;0.00;;;;;-147.17;100.00;-15917.19;5068195;27;50990;-60
2023/01/11 05:20:59;;;;;;;;;0.00;0.00;;;;;-147.17;100.00;-15917.19;5057006;28;50952;-61
2023/01/11 05:23:24;;;;;;;;;0.67;0.00;;;;;-147.17;100.00;-15917.19;5058004;27;51072;-61
2023/01/11 05:25:50;;;;;;;;;0.00;0.00;;;;;-147.17;100.00;-15917.19;5044901;28;52244;-60
2023/01/11 05:28:15;;;;;;;;;0.00;0.00;;;;;-147.17;100.00;-15917.19;5058558;28;51089;-61
2023/01/11 05:30:40;;;;;;;;;1.00;1.00;;;;;-147.17;100.00;-15917.19;5042740;28;51114;-64
2023/01/11 05:33:06;;;;;;;;;1.00;0.00;;;;;-147.17;100.00;-15917.19;5068911;27;51237;-60
2023/01/11 05:35:31;;;;;;;;;0.00;0.00;;;;;-147.17;100.00;-15917.19;5045761;28;51173;-60
2023/01/11 05:37:56;;;;;;;;;0.33;0.33;;;;;-147.17;100.00;-15917.19;5059817;27;51168;-60
2023/01/11 05:40:21;;;;;;;;;1.00;1.00;;;;;-147.17;100.00;-15917.19;5056282;28;51255;-60
2023/01/11 05:42:47;;;;;;;;;0.00;0.00;;;;;-147.17;100.00;-15917.19;5061876;27;51098;-61
2023/01/11 05:45:27;;;;;;;;;0.00;0.00;;;;;-147.17;100.00;-15917.19;5042969;28;52233;-60
2023/01/11 05:47:53;;;;;;;;;2.00;1.00;;;;;-147.17;100.00;-15917.19;5048117;28;50938;-60
2023/01/11 05:50:18;;;;;;;;;0.00;0.00;;;;;-147.17;100.00;-15917.19;5040801;28;51334;-60
2023/01/11 05:52:43;;;;;;;;;1.00;0.00;;;;;-147.17;100.00;-15917.19;5058216;27;51264;-60
2023/01/11 05:55:09;;;;;;;;;1.00;1.00;;;;;-147.17;100.00;-15917.19;5056349;28;52137;-60
2023/01/11 05:57:38;;;;;;;;;0.00;0.00;;;;;-147.17;100.00;-15917.19;5042130;28;51430;-59
2023/01/11 06:00:03;;;;;;;;;0.00;0.00;;;;;-147.17;100.00;-15917.19;5062214;28;51226;-60
2023/01/11 06:02:29;;;;;;;;;0.00;0.00;;;;;-147.17;100.00;-15917.19;5058790;28;51294;-61
2023/01/11 06:04:54;;;;;;;;;4.00;2.00;;;;;-147.17;100.00;-15917.19;5044399;27;51160;-60
2023/01/11 06:07:19;;;;;;;;;1.00;0.00;;;;;-147.17;100.00;-15917.19;5050973;28;51204;-61
2023/01/11 06:09:44;;;;;;;;;0.00;0.00;;;;;-147.17;100.00;-15917.19;5052306;28;51088;-61
2023/01/11 06:12:10;;;;;;;;;0.00;0.00;;;;;-147.17;100.00;-15917.19;5061062;27;51131;-60
2023/01/11 06:14:35;;;;;;;;;0.00;0.00;;;;;-147.17;100.00;-15917.19;5051226;28;52743;-60
2023/01/11 06:17:01;;;;;;;;;1.00;1.00;;;;;-147.17;100.00;-15917.19;5061325;27;51172;-61
2023/01/11 06:19:26;;;;;;;;;1.00;1.00;;;;;-147.17;100.00;-15917.19;5052569;28;51709;-61
2023/01/11 06:21:52;;;;;;;;;1.00;0.00;;;;;-147.17;100.00;-15917.19;5061461;28;51792;-60
2023/01/11 06:24:17;;;;;;;;;2.67;1.67;;;;;-147.17;100.00;-15917.19;5058059;27;51986;-60
2023/01/11 06:26:42;;;;;;;;;3.33;1.00;;;;;-147.17;100.00;-15917.19;5049538;28;51393;-60
2023/01/11 06:29:08;;;;;;;;;1.33;0.00;;;;;-147.17;100.00;-15917.19;5052529;28;51045;-60
2023/01/11 06:31:33;;;;;;;;;0.00;0.00;;;;;-147.17;100.00;-15917.19;5055553;28;51429;-59
2023/01/11 06:33:58;;;;;;;;;1.00;1.00;;;;;-147.17;100.00;-15917.19;5069605;28;51757;-59
2023/01/11 06:36:24;;;;;;;;;2.67;1.00;;;;;-147.17;100.00;-15917.19;5065869;27;50919;-59
2023/01/11 06:38:52;;;;;;;;;3.33;2.33;;;;;-147.17;100.00;-15917.19;5047245;27;51340;-59
2023/01/11 06:41:17;;;;;;;;;4.67;3.00;;;;;-147.17;100.00;-15917.19;5059541;27;51115;-59
2023/01/11 06:43:43;;;;;;;;;2.00;1.00;;;;;-147.17;100.00;-15917.19;5069179;28;52021;-61
2023/01/11 06:46:13;;;;;;;;;2.00;1.00;;;;;-147.17;100.00;-15917.19;5073753;27;51040;-60
2023/01/11 06:48:38;;;;;;;;;2.00;1.00;;;;;-147.17;100.00;-15917.19;5061342;27;51054;-60
2023/01/11 06:51:09;;;;;;;;;1.00;0.67;;;;;-147.17;100.00;-15917.19;5065907;27;50864;-60
2023/01/11 06:53:35;;;;;;;;;3.00;2.67;;;;;-147.17;100.00;-15917.19;5064770;28;51220;-59
2023/01/11 06:56:00;;;;;;;;;3.67;1.67;;;;;-147.17;100.00;-15917.19;5073276;27;50972;-61
2023/01/11 06:58:28;;;;;;;;;0.00;0.00;;;;;-147.17;100.00;-15917.19;5059185;27;51472;-59
2023/01/11 07:00:55;;;;;;;;;3.00;1.33;;;;;-147.17;100.00;-15917.19;5043881;28;51324;-60
2023/01/11 07:03:25;;;;;;;;;2.00;2.00;;;;;-147.17;100.00;-15917.19;5055444;28;52589;-59
2023/01/11 07:05:55;;;;;;;;;2.00;1.00;;;;;-147.17;100.00;-15917.19;5068437;27;51093;-60
2023/01/11 07:08:21;;;;;;;;;1.00;1.00;;;;;-147.17;100.00;-15917.19;5057736;28;51056;-61
2023/01/11 07:10:47;;;;;;;;;1.00;1.00;;;;;-147.17;100.00;-15917.19;5055731;28;51209;-60
2023/01/11 07:13:16;;;;;;;;;1.00;1.00;;;;;-147.17;100.00;-15917.19;5070135;28;51530;-60
2023/01/11 07:15:50;;;;;;;;;2.00;1.00;;;;;-147.17;100.00;-15917.19;5070797;28;50878;-61
2023/01/11 07:18:17;;;;;;;;;1.00;1.00;;;;;-147.17;100.00;-15917.19;5072868;27;51028;-59
2023/01/11 07:20:43;;;;;;;;;2.00;1.00;;;;;-147.17;100.00;-15917.19;5081105;27;51148;-59
2023/01/11 07:23:09;;;;;;;;;0.00;0.00;;;;;-147.17;100.00;-15917.19;5045829;27;50999;-61
2023/01/11 07:25:36;;;;;;;;;3.33;1.00;;;;;-147.17;100.00;-15917.19;5056000;28;50895;-59
2023/01/11 07:28:04;;;;;;;;;3.67;2.00;;;;;-147.17;100.00;-15917.19;5064590;27;51220;-59
2023/01/11 07:30:32;;;;;;;;;3.00;2.33;;;;;-147.17;100.00;-15917.19;5067090;28;51075;-59
2023/01/11 07:32:59;;;;;;;;;2.33;2.00;;;;;-147.17;100.00;-15917.19;5072114;28;51044;-60
2023/01/11 07:35:26;;;;;;;;;1.00;1.00;;;;;-147.17;100.00;-15917.19;5072265;27;51010;-60
2023/01/11 07:37:51;;;;;;;;;2.67;1.67;;;;;-147.17;100.00;-15917.19;5072368;27;51068;-60
2023/01/11 07:40:17;;;;;;;;;3.67;3.00;;;;;-147.17;100.00;-15917.19;5072457;27;51168;-59
2023/01/11 07:45:39;;;;;;;;;3.33;2.67;;;;;-147.17;100.00;-15917.19;5072667;28;51052;-59
2023/01/11 07:48:09;;;;;;;;;5.00;3.00;;;;;-147.17;100.00;-15917.19;5072384;28;51021;-59
2023/01/11 07:50:39;;;;;;;;;1.67;1.00;;;;;-147.17;100.00;-15917.19;5072419;27;50942;-60
2023/01/11 07:53:05;;;;;;;;;2.00;1.00;;;;;-147.17;100.00;-15917.19;5072094;27;51127;-60
2023/01/11 07:55:31;;;;;;;;;3.67;2.00;;;;;-147.17;100.00;-15917.19;5072510;27;51003;-60
2023/01/11 07:57:57;;;;;;;;;6.33;5.67;;;;;-147.17;100.00;-15917.19;5061928;27;51558;-60
2023/01/11 08:00:23;;;;;;;;;1.00;1.00;;;;;-147.17;100.00;-15917.19;5072871;27;50903;-59
2023/01/11 08:02:51;;;;;;;;;2.00;1.00;;;;;-147.17;100.00;-15917.19;5071967;27;52408;-61
2023/01/11 08:05:17;;;;;;;;;2.67;1.00;;;;;-147.17;100.00;-15917.19;5071872;27;51119;-60
2023/01/11 08:07:42;;;;;;;;;2.00;1.00;;;;;-147.17;100.00;-15917.19;5072079;27;51140;-61
2023/01/11 08:10:08;;;;;;;;;3.00;3.00;;;;;-147.17;100.00;-15917.19;5071396;27;51124;-60
2023/01/11 08:15:17;;;;;;;;;2.33;2.00;;;;;-147.17;100.00;-15917.19;5075778;28;51111;-59
2023/01/11 08:17:43;;;;;;;;;4.00;2.00;;;;;-147.17;100.00;-15917.19;5075469;27;51230;-59
2023/01/11 08:20:19;;;;;;;;;3.33;2.00;;;;;-147.17;100.00;-15917.19;5062619;27;51072;-60
2023/01/11 08:22:48;;;;;;;;;5.67;4.67;;;;;-147.17;100.00;-15917.19;5049966;28;51824;-61
2023/01/11 08:25:14;;;;;;;;;4.00;3.67;;;;;-147.17;100.00;-15917.19;5062085;28;50953;-60
2023/01/11 08:27:42;;;;;;;;;1.00;1.00;;;;;-147.17;100.00;-15917.19;5075369;28;51162;-60
2023/01/11 08:30:08;;;;;;;;;3.00;3.00;;;;;-147.17;100.00;-15917.19;5075333;27;51245;-59
2023/01/11 08:32:39;;;;;;;;;3.00;2.33;;;;;-147.17;100.00;-15917.19;5074967;27;50998;-60
2023/01/11 08:35:05;;;;;;;;;4.67;3.33;;;;;-147.17;100.00;-15917.19;5074738;28;51077;-60
2023/01/11 08:37:31;;;;;;;;;6.00;3.33;;;;;-147.17;100.00;-15917.19;5075089;27;50998;-59
2023/01/11 08:39:59;;;;;;;;;4.00;3.00;;;;;-147.17;100.00;-15917.19;5073998;28;51149;-60
2023/01/11 08:42:25;;;;;;;;;5.67;4.67;;;;;-147.17;100.00;-15917.19;5075236;27;52139;-59
2023/01/11 08:44:51;;;;;;;;;3.67;3.67;;;;;-147.17;100.00;-15917.19;5061336;27;51156;-60
2023/01/11 08:47:16;;;;;;;;;3.33;2.33;;;;;-147.17;100.00;-15917.19;5075060;27;50901;-60
2023/01/11 08:49:41;;;;;;;;;4.00;3.00;;;;;-147.17;100.00;-15917.19;5074793;27;51194;-60
2023/01/11 08:52:12;;;;;;;;;19.75;19.00;;;;;-147.17;100.00;-15917.19;5074934;27;51080;-60
2023/01/11 08:54:41;;;;;;;;;7.33;4.00;;;;;-147.17;100.00;-15917.19;5073546;28;51186;-59
2023/01/11 08:57:06;;;;;;;;;2.00;2.00;;;;;-147.17;100.00;-15917.19;5090643;27;50820;-60
2023/01/11 08:59:42;;;;;;;;;5.00;3.67;;;;;-147.17;100.00;-15917.19;5074851;27;51255;-59
2023/01/11 09:02:10;;;;;;;;;2.67;2.67;;;;;-147.17;100.00;-15917.19;5057959;28;52959;-59
2023/01/11 09:04:36;;;;;;;;;3.00;2.33;;;;;-147.17;100.00;-15917.19;5073467;28;50905;-60
2023/01/11 09:07:02;;;;;;;;;2.67;2.67;;;;;-147.17;100.00;-15917.19;5074840;27;50997;-59
2023/01/11 09:09:27;;;;;;;;;2.67;2.00;;;;;-147.17;100.00;-15917.19;5074968;27;51078;-59
2023/01/11 09:11:55;;;;;;;;;4.33;3.00;;;;;-147.17;100.00;-15917.19;5072972;27;51386;-61
2023/01/11 09:14:26;;;;;;;;;4.00;2.00;;;;;-147.17;100.00;-15917.19;5090200;27;51023;-60
2023/01/11 09:16:52;;;;;;;;;3.33;2.33;;;;;-147.17;100.00;-15917.19;5074722;27;51160;-59
2023/01/11 09:19:18;;;;;;;;;2.67;2.00;;;;;-147.17;100.00;-15917.19;5069331;27;51357;-60
2023/01/11 09:21:45;;;;;;;;;3.00;2.33;;;;;-147.17;100.00;-15917.19;5072876;28;51364;-60
2023/01/11 09:24:10;;;;;;;;;4.33;3.33;;;;;-147.17;100.00;-15917.19;5078299;27;51136;-59
2023/01/11 09:26:37;;;;;;;;;3.67;3.00;;;;;-147.17;100.00;-15917.19;5069701;28;51394;-60
2023/01/11 09:29:03;;;;;;;;;5.00;4.00;;;;;-147.17;100.00;-15917.19;5074571;27;51333;-60
2023/01/11 09:31:29;;;;;;;;;4.00;2.67;;;;;-147.17;100.00;-15917.19;5073912;27;52907;-59
2023/01/11 09:33:54;;;;;;;;;3.33;3.00;;;;;-147.17;100.00;-15917.19;5074105;27;51045;-61
2023/01/11 09:36:20;;;;;;;;;1.67;1.67;;;;;-147.17;100.00;-15917.19;5073868;27;51310;-60
2023/01/11 09:38:51;;;;;;;;;2.33;2.00;;;;;-147.17;100.00;-15917.19;5073155;28;51335;-59
2023/01/11 09:42:00;;;;;;;;;2.33;2.00;;;;;-147.17;100.00;-15917.19;5073710;27;52620;-60
2023/01/11 09:44:28;;;;;;;;;1.00;1.00;;;;;-147.17;100.00;-15917.19;5074195;27;50959;-60
2023/01/11 09:47:24;;;;;;;;;0.67;0.67;;;;;-147.17;100.00;-15917.19;5074211;28;51011;-60
2023/01/11 09:49:55;;;;;;;;;2.00;1.67;;;;;-147.17;100.00;-15917.19;5073840;27;51327;-60
2023/01/11 09:52:35;;;;;;;;;4.00;2.00;;;;;-147.17;100.00;-15917.19;5073624;27;52722;-59
2023/01/11 09:55:01;;;;;;;;;1.00;1.00;;;;;-147.17;100.00;-15917.19;5073898;27;51234;-60
2023/01/11 09:58:01;;;;;;;;;4.00;2.00;;;;;-147.17;100.00;-15917.19;5073920;27;51036;-60
2023/01/11 10:00:35;;;;;;;;;9.67;7.67;;;;;-147.17;100.00;-15917.19;5074057;27;51146;-59
2023/01/11 10:03:13;;;;;;;;;1.00;1.00;;;;;-147.17;100.00;-15917.19;5073560;27;51034;-60
2023/01/11 10:06:18;;;;;;;;;5.00;4.00;;;;;-147.17;100.00;-15917.19;5072973;27;51168;-59
2023/01/11 10:08:59;;;;;;;;;5.00;3.00;;;;;-147.17;100.00;-15917.19;5065209;27;51215;-60
2023/01/11 10:12:07;;;;;;;;;1.00;1.00;;;;;-147.17;100.00;-15917.19;5072954;28;51070;-59
2023/01/11 10:14:50;;;;;;;;;3.00;1.00;;;;;-147.17;100.00;-15917.19;5050758;28;52871;-60
2023/01/11 10:17:54;;;;;;;;;3.00;1.67;;;;;-147.17;100.00;-15917.19;5070672;27;50982;-60
2023/01/11 10:20:29;;;;;;;;;2.00;2.00;;;;;-147.17;100.00;-15917.19;5073061;27;50993;-60
2023/01/11 10:23:10;;;;;;;;;3.33;3.33;;;;;-147.17;100.00;-15917.19;5073568;27;50932;-59
2023/01/11 10:25:50;;;;;;;;;2.67;1.67;;;;;-147.17;100.00;-15917.19;5047313;28;51079;-59
2023/01/11 10:28:30;;;;;;;;;6.67;6.33;;;;;-147.17;100.00;-15917.19;5073001;27;51100;-60
2023/01/11 10:34:12;;;;;;;;;1.67;1.33;;;;;-147.17;100.00;-15917.19;5073298;27;50895;-60
2023/01/11 10:40:25;;;;;;;;;0.00;0.00;;;;;-147.17;100.00;-15917.19;5072978;28;50918;-60
2023/01/11 10:43:02;;;;;;;;;2.00;2.00;;;;;-147.17;100.00;-15917.19;5064902;28;50965;-60
2023/01/11 10:45:51;;;;;;;;;8.00;6.00;;;;;-147.17;100.00;-15917.19;5073147;27;51161;-59
2023/01/11 10:48:28;;;;;;;;;1.00;1.00;;;;;-147.17;100.00;-15917.19;5072525;28;52095;-60
2023/01/11 10:51:05;;;;;;;;;3.00;3.00;;;;;-147.17;100.00;-15917.19;5072288;27;51072;-59
2023/01/11 10:54:02;;;;;;;;;2.33;2.00;;;;;-147.17;100.00;-15917.19;5072878;27;51223;-60
2023/01/11 10:57:06;;;;;;;;;1.67;1.67;;;;;-147.17;100.00;-15917.19;5073075;27;51006;-60
2023/01/11 10:59:55;;;;;;;;;2.00;2.00;;;;;-147.17;100.00;-15917.19;5072067;28;52718;-60
2023/01/11 11:02:38;;;;;;;;;4.00;2.00;;;;;-147.17;100.00;-15917.19;5072348;27;51084;-60
2023/01/11 11:05:32;;;;;;;;;3.00;3.00;;;;;-147.17;100.00;-15917.19;5072643;28;51040;-60
2023/01/11 11:08:06;;;;;;;;;3.33;2.00;;;;;-147.17;100.00;-15917.19;5072760;28;51100;-60
2023/01/11 11:10:43;;;;;;;;;4.33;3.00;;;;;-147.17;100.00;-15917.19;5070700;27;52106;-59
2023/01/11 11:13:30;;;;;;;;;7.00;4.00;;;;;-147.17;100.00;-15917.19;5061510;27;51041;-61
2023/01/11 11:16:14;;;;;;;;;9.67;6.67;;;;;-147.17;100.00;-15917.19;5033510;28;51168;-60
2023/01/11 11:18:41;;;;;;;;;4.00;3.00;;;;;-147.17;100.00;-15917.19;5065418;28;50887;-60
2023/01/11 11:21:21;;;;;;;;;4.33;4.00;;;;;-147.17;100.00;-15917.19;5072012;28;51077;-60
2023/01/11 11:24:22;;;;;;;;;3.00;3.00;;;;;-147.17;100.00;-15917.19;5078720;27;51137;-60
2023/01/11 11:27:01;;;;;;;;;3.00;2.67;;;;;-147.17;100.00;-15917.19;5066024;28;51071;-60
2023/01/11 11:29:29;;;;;;;;;4.00;2.67;;;;;-147.17;100.00;-15917.19;5072192;27;51088;-60
2023/01/11 11:32:01;;;;;;;;;2.00;2.00;;;;;-147.17;100.00;-15917.19;5071843;28;51058;-60
2023/01/11 11:34:27;;;;;;;;;4.00;4.00;;;;;-147.17;100.00;-15917.19;5071783;27;51075;-60
2023/01/11 11:36:56;;;;;;;;;1.33;1.33;;;;;-147.17;100.00;-15917.19;5072470;27;50949;-60
2023/01/11 11:39:29;;;;;;;;;4.33;4.33;;;;;-147.17;100.00;-15917.19;5072035;27;51248;-60
2023/01/11 11:42:02;;;;;;;;;8.67;8.00;;;;;-147.17;100.00;-15917.19;5071815;27;52205;-60
2023/01/11 11:44:28;;;;;;;;;5.00;4.00;;;;;-147.17;100.00;-15917.19;5071569;27;51124;-61
2023/01/11 11:47:13;;;;;;;;;6.00;5.33;;;;;-147.17;100.00;-15917.19;5072323;27;51087;-61
2023/01/11 11:49:39;;;;;;;;;4.00;3.33;;;;;-147.17;100.00;-15917.19;5091173;27;51384;-60
2023/01/11 11:52:11;;;;;;;;;5.33;2.33;;;;;-147.17;100.00;-15917.19;5075677;27;52591;-60